sensor_id;sensor_type;location;lat;lon;timestamp;pressure;altitude;pressure_sealevel;temperature;humidity
71970;BME280;59838;52.152;5.436;2022-08-01T00:01:57;101767.16;;;18.79;90.35
71970;BME280;59838;52.152;5.436;2022-08-01T00:04:24;101770.59;;;18.79;90.20
71970;BME280;59838;52.152;5.436;2022-08-01T00:06:57;101761.06;;;18.78;90.55
71970;BME280;59838;52.152;5.436;2022-08-01T00:09:32;101773.22;;;18.79;90.67
71970;BME280;59838;52.152;5.436;2022-08-01T00:11:58;101766.34;;;18.78;90.50
71970;BME280;59838;52.152;5.436;2022-08-01T00:14:29;101770.81;;;18.78;90.54
71970;BME280;59838;52.152;5.436;2022-08-01T00:16:58;101773.66;;;18.76;90.69
71970;BME280;59838;52.152;5.436;2022-08-01T00:19:32;101772.25;;;18.74;91.00
71970;BME280;59838;52.152;5.436;2022-08-01T00:21:59;101766.41;;;18.72;91.04
71970;BME280;59838;52.152;5.436;2022-08-01T00:24:26;101771.88;;;18.70;91.17
71970;BME280;59838;52.152;5.436;2022-08-01T00:26:53;101768.44;;;18.70;91.37
71970;BME280;59838;52.152;5.436;2022-08-01T00:29:19;101772.09;;;18.69;91.38
71970;BME280;59838;52.152;5.436;2022-08-01T00:32:06;101772.28;;;18.67;91.12
71970;BME280;59838;52.152;5.436;2022-08-01T00:34:33;101777.56;;;18.67;91.77
71970;BME280;59838;52.152;5.436;2022-08-01T00:37:07;101774.34;;;18.65;91.69
71970;BME280;59838;52.152;5.436;2022-08-01T00:39:33;101776.19;;;18.64;91.83
71970;BME280;59838;52.152;5.436;2022-08-01T00:42:05;101770.09;;;18.64;92.07
71970;BME280;59838;52.152;5.436;2022-08-01T00:44:32;101777.41;;;18.62;92.18
71970;BME280;59838;52.152;5.436;2022-08-01T00:46:59;101773.59;;;18.58;92.09
71970;BME280;59838;52.152;5.436;2022-08-01T00:49:26;101772.78;;;18.57;92.58
71970;BME280;59838;52.152;5.436;2022-08-01T00:51:54;101767.72;;;18.56;92.67
71970;BME280;59838;52.152;5.436;2022-08-01T00:54:23;101774.03;;;18.55;92.71
71970;BME280;59838;52.152;5.436;2022-08-01T00:56:49;101772.41;;;18.54;92.63
71970;BME280;59838;52.152;5.436;2022-08-01T00:59:17;101775.03;;;18.54;92.62
71970;BME280;59838;52.152;5.436;2022-08-01T01:01:45;101775.03;;;18.54;92.56
71970;BME280;59838;52.152;5.436;2022-08-01T01:04:16;101779.69;;;18.52;92.81
71970;BME280;59838;52.152;5.436;2022-08-01T01:06:57;101787.19;;;18.48;92.99
71970;BME280;59838;52.152;5.436;2022-08-01T01:09:34;101782.75;;;18.49;92.96
71970;BME280;59838;52.152;5.436;2022-08-01T01:12:12;101780.13;;;18.49;93.13
71970;BME280;59838;52.152;5.436;2022-08-01T01:14:46;101780.13;;;18.49;93.01
71970;BME280;59838;52.152;5.436;2022-08-01T01:17:21;101780.13;;;18.49;93.11
71970;BME280;59838;52.152;5.436;2022-08-01T01:20:13;101777.50;;;18.49;93.38
71970;BME280;59838;52.152;5.436;2022-08-01T01:22:53;101773.25;;;18.48;93.64
71970;BME280;59838;52.152;5.436;2022-08-01T01:28:17;101775.06;;;18.47;93.65
71970;BME280;59838;52.152;5.436;2022-08-01T01:30:50;101777.91;;;18.45;93.52
71970;BME280;59838;52.152;5.436;2022-08-01T01:33:19;101775.28;;;18.45;93.71
71970;BME280;59838;52.152;5.436;2022-08-01T01:35:49;101772.66;;;18.45;94.11
71970;BME280;59838;52.152;5.436;2022-08-01T01:38:23;101767.38;;;18.45;94.08
71970;BME280;59838;52.152;5.436;2022-08-01T01:40:58;101767.59;;;18.44;94.15
71970;BME280;59838;52.152;5.436;2022-08-01T01:43:27;101768.59;;;18.43;94.05
71970;BME280;59838;52.152;5.436;2022-08-01T01:46:00;101774.50;;;18.45;94.11
71970;BME280;59838;52.152;5.436;2022-08-01T01:48:27;101770.81;;;18.46;93.74
71970;BME280;59838;52.152;5.436;2022-08-01T01:50:55;101780.34;;;18.47;93.82
71970;BME280;59838;52.152;5.436;2022-08-01T01:53:23;101775.88;;;18.48;93.76
71970;BME280;59838;52.152;5.436;2022-08-01T01:55:52;101780.13;;;18.49;93.97
71970;BME280;59838;52.152;5.436;2022-08-01T01:58:22;101778.50;;;18.48;93.91
71970;BME280;59838;52.152;5.436;2022-08-01T02:00:52;101777.50;;;18.49;94.11
71970;BME280;59838;52.152;5.436;2022-08-01T02:03:20;101778.28;;;18.49;93.99
71970;BME280;59838;52.152;5.436;2022-08-01T02:05:49;101779.53;;;18.47;94.26
71970;BME280;59838;52.152;5.436;2022-08-01T02:08:17;101779.75;;;18.45;94.21
71970;BME280;59838;52.152;5.436;2022-08-01T02:10:45;101779.97;;;18.43;93.98
71970;BME280;59838;52.152;5.436;2022-08-01T02:13:31;101781.34;;;18.46;94.25
71970;BME280;59838;52.152;5.436;2022-08-01T02:15:58;101783.19;;;18.45;94.01
71970;BME280;59838;52.152;5.436;2022-08-01T02:18:26;101772.66;;;18.45;93.88
71970;BME280;59838;52.152;5.436;2022-08-01T02:20:54;101775.28;;;18.45;94.27
71970;BME280;59838;52.152;5.436;2022-08-01T02:23:22;101787.19;;;18.48;94.22
71970;BME280;59838;52.152;5.436;2022-08-01T02:25:52;101779.53;;;18.47;94.20
71970;BME280;59838;52.152;5.436;2022-08-01T02:28:41;101784.81;;;18.47;94.39
71970;BME280;59838;52.152;5.436;2022-08-01T02:31:12;101781.34;;;18.46;94.45
71970;BME280;59838;52.152;5.436;2022-08-01T02:34:02;101783.19;;;18.45;94.02
71970;BME280;59838;52.152;5.436;2022-08-01T02:36:32;101784.19;;;18.44;94.45
71970;BME280;59838;52.152;5.436;2022-08-01T02:39:08;101783.97;;;18.46;94.22
71970;BME280;59838;52.152;5.436;2022-08-01T02:41:39;101786.59;;;18.46;94.39
71970;BME280;59838;52.152;5.436;2022-08-01T02:44:09;101789.44;;;18.44;94.25
71970;BME280;59838;52.152;5.436;2022-08-01T02:46:41;101793.69;;;18.45;94.33
71970;BME280;59838;52.152;5.436;2022-08-01T02:49:10;101784.19;;;18.44;94.39
71970;BME280;59838;52.152;5.436;2022-08-01T02:51:39;101788.06;;;18.42;94.14
71970;BME280;59838;52.152;5.436;2022-08-01T02:54:08;101790.47;;;18.43;94.36
71970;BME280;59838;52.152;5.436;2022-08-01T02:56:36;101789.88;;;18.41;94.53
71970;BME280;59838;52.152;5.436;2022-08-01T02:59:07;101785.03;;;18.38;94.33
71970;BME280;59838;52.152;5.436;2022-08-01T03:01:35;101782.19;;;18.40;94.55
71970;BME280;59838;52.152;5.436;2022-08-01T03:04:06;101786.66;;;18.39;94.68
71970;BME280;59838;52.152;5.436;2022-08-01T03:06:33;101784.44;;;18.36;94.84
71970;BME280;59838;52.152;5.436;2022-08-01T03:09:02;101786.06;;;18.37;94.84
71970;BME280;59838;52.152;5.436;2022-08-01T03:11:30;101772.31;;;18.35;95.14
71970;BME280;59838;52.152;5.436;2022-08-01T03:13:59;101772.31;;;18.35;95.20
71970;BME280;59838;52.152;5.436;2022-08-01T03:16:28;101768.66;;;18.36;95.18
71970;BME280;59838;52.152;5.436;2022-08-01T03:18:56;101770.50;;;18.36;95.04
71970;BME280;59838;52.152;5.436;2022-08-01T03:21:23;101780.41;;;18.34;94.87
71970;BME280;59838;52.152;5.436;2022-08-01T03:23:52;101777.16;;;18.32;95.14
71970;BME280;59838;52.152;5.436;2022-08-01T03:26:26;101787.31;;;18.28;95.02
71970;BME280;59838;52.152;5.436;2022-08-01T03:28:55;101779.84;;;18.25;95.21
71970;BME280;59838;52.152;5.436;2022-08-01T03:31:23;101788.97;;;18.22;95.18
71970;BME280;59838;52.152;5.436;2022-08-01T03:33:56;101791.00;;;18.20;95.25
71970;BME280;59838;52.152;5.436;2022-08-01T03:36:32;101782.50;;;18.18;95.22
71970;BME280;59838;52.152;5.436;2022-08-01T03:39:02;101787.19;;;18.16;95.31
71970;BME280;59838;52.152;5.436;2022-08-01T03:41:36;101794.25;;;18.16;95.49
71970;BME280;59838;52.152;5.436;2022-08-01T03:44:07;101787.38;;;18.15;95.09
71970;BME280;59838;52.152;5.436;2022-08-01T03:46:42;101797.91;;;18.15;95.21
71970;BME280;59838;52.152;5.436;2022-08-01T03:49:17;101796.06;;;18.15;95.27
71970;BME280;59838;52.152;5.436;2022-08-01T03:51:48;101792.66;;;18.15;95.17
71970;BME280;59838;52.152;5.436;2022-08-01T03:54:17;101797.91;;;18.15;94.94
71970;BME280;59838;52.152;5.436;2022-08-01T03:56:48;101799.94;;;18.13;94.85
71970;BME280;59838;52.152;5.436;2022-08-01T03:59:16;101795.09;;;18.09;94.69
71970;BME280;59838;52.152;5.436;2022-08-01T04:01:45;101797.94;;;18.08;95.06
71970;BME280;59838;52.152;5.436;2022-08-01T04:04:12;101801.19;;;18.03;94.67
71970;BME280;59838;52.152;5.436;2022-08-01T04:06:40;101807.06;;;17.99;94.75
71970;BME280;59838;52.152;5.436;2022-08-01T04:09:07;101796.75;;;17.97;94.64
71970;BME280;59838;52.152;5.436;2022-08-01T04:11:39;101791.72;;;17.96;94.74
71970;BME280;59838;52.152;5.436;2022-08-01T04:14:07;101801.22;;;17.97;94.88
71970;BME280;59838;52.152;5.436;2022-08-01T04:16:34;101800.19;;;17.98;94.94
71970;BME280;59838;52.152;5.436;2022-08-01T04:19:01;101795.53;;;18.00;94.89
71970;BME280;59838;52.152;5.436;2022-08-01T04:21:29;101804.03;;;18.02;95.05
71970;BME280;59838;52.152;5.436;2022-08-01T04:23:59;101818.59;;;18.04;94.70
71970;BME280;59838;52.152;5.436;2022-08-01T04:26:30;101815.97;;;18.04;94.98
71970;BME280;59838;52.152;5.436;2022-08-01T04:29:00;101813.34;;;18.04;94.78
71970;BME280;59838;52.152;5.436;2022-08-01T04:31:29;101817.56;;;18.05;94.84
71970;BME280;59838;52.152;5.436;2022-08-01T04:33:59;101818.16;;;18.07;94.58
71970;BME280;59838;52.152;5.436;2022-08-01T04:36:28;101824.44;;;18.06;94.64
71970;BME280;59838;52.152;5.436;2022-08-01T04:38:59;101819.59;;;18.03;94.09
71970;BME280;59838;52.152;5.436;2022-08-01T04:41:26;101828.50;;;18.02;93.81
71970;BME280;59838;52.152;5.436;2022-08-01T04:43:54;101829.53;;;18.01;93.57
71970;BME280;59838;52.152;5.436;2022-08-01T04:46:22;101830.13;;;18.03;93.16
71970;BME280;59838;52.152;5.436;2022-08-01T04:48:49;101828.28;;;18.04;93.15
71970;BME280;59838;52.152;5.436;2022-08-01T04:51:17;101838.41;;;18.00;93.27
71970;BME280;59838;52.152;5.436;2022-08-01T04:53:44;101833.38;;;17.99;93.36
71970;BME280;59838;52.152;5.436;2022-08-01T04:56:12;101839.81;;;17.96;93.56
71970;BME280;59838;52.152;5.436;2022-08-01T04:58:40;101849.34;;;17.97;94.04
71970;BME280;59838;52.152;5.436;2022-08-01T05:01:07;101840.66;;;17.97;93.99
71970;BME280;59838;52.152;5.436;2022-08-01T05:03:34;101848.94;;;18.00;93.47
71970;BME280;59838;52.152;5.436;2022-08-01T05:06:04;101857.47;;;17.89;92.78
71970;BME280;59838;52.152;5.436;2022-08-01T05:08:31;101852.78;;;17.84;93.14
71970;BME280;59838;52.152;5.436;2022-08-01T05:10:57;101849.75;;;17.81;93.11
71970;BME280;59838;52.152;5.436;2022-08-01T05:13:24;101855.84;;;17.75;93.23
71970;BME280;59838;52.152;5.436;2022-08-01T05:15:50;101855.03;;;17.74;93.50
71970;BME280;59838;52.152;5.436;2022-08-01T05:18:16;101861.06;;;17.81;93.70
71970;BME280;59838;52.152;5.436;2022-08-01T05:20:53;101857.66;;;17.81;93.38
71970;BME280;59838;52.152;5.436;2022-08-01T05:23:19;101861.09;;;17.75;93.62
71970;BME280;59838;52.152;5.436;2022-08-01T05:26:05;101857.88;;;17.72;93.84
71970;BME280;59838;52.152;5.436;2022-08-01T05:28:32;101865.34;;;17.76;93.99
71970;BME280;59838;52.152;5.436;2022-08-01T05:30:58;101861.06;;;17.81;94.06
71970;BME280;59838;52.152;5.436;2022-08-01T05:33:25;101862.50;;;17.90;94.09
71970;BME280;59838;52.152;5.436;2022-08-01T05:35:51;101870.56;;;17.96;93.25
71970;BME280;59838;52.152;5.436;2022-08-01T05:38:17;101869.56;;;17.97;93.25
71970;BME280;59838;52.152;5.436;2022-08-01T05:40:44;101872.00;;;17.98;93.14
71970;BME280;59838;52.152;5.436;2022-08-01T05:43:10;101872.03;;;17.92;92.33
71970;BME280;59838;52.152;5.436;2022-08-01T05:45:37;101867.16;;;17.88;92.94
71970;BME280;59838;52.152;5.436;2022-08-01T05:48:03;101871.38;;;17.96;93.08
71970;BME280;59838;52.152;5.436;2022-08-01T05:50:30;101877.44;;;18.03;92.75
71970;BME280;59838;52.152;5.436;2022-08-01T05:52:56;101874.78;;;18.10;93.02
71970;BME280;59838;52.152;5.436;2022-08-01T05:55:23;101873.13;;;18.16;92.77
71970;BME280;59838;52.152;5.436;2022-08-01T05:57:49;101872.31;;;18.22;92.72
71970;BME280;59838;52.152;5.436;2022-08-01T06:00:16;101873.53;;;18.26;92.19
71970;BME280;59838;52.152;5.436;2022-08-01T06:02:42;101872.06;;;18.30;91.94
71970;BME280;59838;52.152;5.436;2022-08-01T06:05:09;101863.78;;;18.33;91.97
71970;BME280;59838;52.152;5.436;2022-08-01T06:07:39;101872.88;;;18.37;90.75
71970;BME280;59838;52.152;5.436;2022-08-01T06:10:07;101883.19;;;18.39;91.06
71970;BME280;59838;52.152;5.436;2022-08-01T06:12:34;101874.88;;;18.42;91.04
71970;BME280;59838;52.152;5.436;2022-08-01T06:15:02;101880.91;;;18.49;91.38
71970;BME280;59838;52.152;5.436;2022-08-01T06:17:29;101879.91;;;18.50;91.37
71970;BME280;59838;52.152;5.436;2022-08-01T06:19:55;101882.75;;;18.49;91.38
71970;BME280;59838;52.152;5.436;2022-08-01T06:22:22;101883.13;;;18.52;91.70
71970;BME280;59838;52.152;5.436;2022-08-01T06:24:49;101880.69;;;18.51;91.14
71970;BME280;59838;52.152;5.436;2022-08-01T06:27:16;101882.16;;;18.47;90.84
71970;BME280;59838;52.152;5.436;2022-08-01T06:29:47;101877.47;;;18.49;91.21
71970;BME280;59838;52.152;5.436;2022-08-01T06:32:15;101881.13;;;18.48;91.04
71970;BME280;59838;52.152;5.436;2022-08-01T06:34:53;101884.78;;;18.40;91.40
71970;BME280;59838;52.152;5.436;2022-08-01T06:37:20;101882.38;;;18.38;91.39
71970;BME280;59838;52.152;5.436;2022-08-01T06:39:47;101887.63;;;18.38;91.40
71970;BME280;59838;52.152;5.436;2022-08-01T06:42:15;101887.25;;;18.35;91.79
71970;BME280;59838;52.152;5.436;2022-08-01T06:44:42;101894.75;;;18.31;92.22
71970;BME280;59838;52.152;5.436;2022-08-01T06:47:08;101903.66;;;18.30;92.41
71970;BME280;59838;52.152;5.436;2022-08-01T06:49:34;101900.00;;;18.31;92.46
71970;BME280;59838;52.152;5.436;2022-08-01T06:52:01;101903.03;;;18.35;92.80
71970;BME280;59838;52.152;5.436;2022-08-01T06:54:29;101903.44;;;18.32;92.77
71970;BME280;59838;52.152;5.436;2022-08-01T06:56:56;101904.69;;;18.29;93.00
71970;BME280;59838;52.152;5.436;2022-08-01T06:59:22;101903.22;;;18.33;92.85
71970;BME280;59838;52.152;5.436;2022-08-01T07:01:49;101909.31;;;18.34;92.83
71970;BME280;59838;52.152;5.436;2022-08-01T07:04:15;101913.38;;;18.30;92.50
71970;BME280;59838;52.152;5.436;2022-08-01T07:06:41;101909.31;;;18.34;92.89
71970;BME280;59838;52.152;5.436;2022-08-01T07:09:08;101906.66;;;18.40;92.82
71970;BME280;59838;52.152;5.436;2022-08-01T07:11:39;101907.50;;;18.34;92.46
71970;BME280;59838;52.152;5.436;2022-08-01T07:14:06;101918.22;;;18.33;92.78
71970;BME280;59838;52.152;5.436;2022-08-01T07:16:32;101915.75;;;18.38;92.67
71970;BME280;59838;52.152;5.436;2022-08-01T07:18:59;101909.28;;;18.40;92.59
71970;BME280;59838;52.152;5.436;2022-08-01T07:21:25;101919.81;;;18.40;92.65
71970;BME280;59838;52.152;5.436;2022-08-01T07:24:07;101916.56;;;18.38;92.64
71970;BME280;59838;52.152;5.436;2022-08-01T07:26:43;101921.81;;;18.38;92.74
71970;BME280;59838;52.152;5.436;2022-08-01T07:29:19;101920.22;;;18.37;92.34
71970;BME280;59838;52.152;5.436;2022-08-01T07:31:46;101922.25;;;18.28;92.29
71970;BME280;59838;52.152;5.436;2022-08-01T07:34:12;101923.78;;;18.04;91.03
71970;BME280;59838;52.152;5.436;2022-08-01T07:36:41;101930.44;;;17.94;91.71
71970;BME280;59838;52.152;5.436;2022-08-01T07:39:07;101939.94;;;17.88;91.66
71970;BME280;59838;52.152;5.436;2022-08-01T07:41:33;101935.53;;;17.88;91.31
71970;BME280;59838;52.152;5.436;2022-08-01T07:44:20;101943.22;;;17.90;91.56
71970;BME280;59838;52.152;5.436;2022-08-01T07:46:46;101945.81;;;17.97;91.29
71970;BME280;59838;52.152;5.436;2022-08-01T07:49:13;101946.81;;;18.02;91.85
71970;BME280;59838;52.152;5.436;2022-08-01T07:51:40;101949.03;;;18.05;92.00
71970;BME280;59838;52.152;5.436;2022-08-01T07:54:06;101947.81;;;18.08;91.12
71970;BME280;59838;52.152;5.436;2022-08-01T07:56:35;101950.25;;;18.09;90.80
71970;BME280;59838;52.152;5.436;2022-08-01T07:59:02;101957.31;;;18.09;91.19
71970;BME280;59838;52.152;5.436;2022-08-01T08:01:28;101955.31;;;18.11;91.47
71970;BME280;59838;52.152;5.436;2022-08-01T08:03:55;101962.56;;;18.09;90.19
71970;BME280;59838;52.152;5.436;2022-08-01T08:06:21;101958.56;;;18.06;89.48
71970;BME280;59838;52.152;5.436;2022-08-01T08:08:48;101967.00;;;18.15;89.87
71970;BME280;59838;52.152;5.436;2022-08-01T08:11:21;101961.34;;;18.25;89.18
71970;BME280;59838;52.152;5.436;2022-08-01T08:13:48;101965.56;;;18.33;89.77
71970;BME280;59838;52.152;5.436;2022-08-01T08:16:15;101962.28;;;18.44;87.98
71970;BME280;59838;52.152;5.436;2022-08-01T08:18:41;101970.16;;;18.57;87.93
71970;BME280;59838;52.152;5.436;2022-08-01T08:21:09;101970.53;;;18.68;86.68
71970;BME280;59838;52.152;5.436;2022-08-01T08:23:38;101969.00;;;18.92;85.15
71970;BME280;59838;52.152;5.436;2022-08-01T08:26:24;101971.72;;;19.17;84.66
71970;BME280;59838;52.152;5.436;2022-08-01T08:28:51;101977.50;;;19.32;85.25
71970;BME280;59838;52.152;5.436;2022-08-01T08:31:19;101976.94;;;19.55;83.43
71970;BME280;59838;52.152;5.436;2022-08-01T08:33:49;101981.72;;;19.65;81.92
71970;BME280;59838;52.152;5.436;2022-08-01T08:36:16;101976.13;;;19.55;83.12
71970;BME280;59838;52.152;5.436;2022-08-01T08:38:45;101981.53;;;19.35;83.59
71970;BME280;59838;52.152;5.436;2022-08-01T08:41:12;101978.59;;;19.18;81.32
71970;BME280;59838;52.152;5.436;2022-08-01T08:43:46;101985.75;;;19.04;82.67
71970;BME280;59838;52.152;5.436;2022-08-01T08:46:14;101995.13;;;18.93;82.66
71970;BME280;59838;52.152;5.436;2022-08-01T08:48:42;101989.09;;;18.86;81.85
71970;BME280;59838;52.152;5.436;2022-08-01T08:51:17;101993.91;;;18.96;83.35
71970;BME280;59838;52.152;5.436;2022-08-01T08:53:46;101991.44;;;19.01;82.63
71970;BME280;59838;52.152;5.436;2022-08-01T08:56:13;101994.84;;;19.15;82.53
71970;BME280;59838;52.152;5.436;2022-08-01T08:58:41;101994.22;;;19.20;82.66
71970;BME280;59838;52.152;5.436;2022-08-01T09:01:19;101999.44;;;19.26;80.94
71970;BME280;59838;52.152;5.436;2022-08-01T09:04:11;101994.78;;;19.22;78.87
71970;BME280;59838;52.152;5.436;2022-08-01T09:06:49;101996.13;;;19.38;80.18
71970;BME280;59838;52.152;5.436;2022-08-01T09:09:16;101993.69;;;19.36;78.35
71970;BME280;59838;52.152;5.436;2022-08-01T09:11:44;102001.81;;;19.34;77.69
71970;BME280;59838;52.152;5.436;2022-08-01T09:14:23;102000.88;;;19.54;77.58
71970;BME280;59838;52.152;5.436;2022-08-01T09:17:06;102006.03;;;19.67;77.93
71970;BME280;59838;52.152;5.436;2022-08-01T09:19:47;102015.91;;;19.79;76.54
71970;BME280;59838;52.152;5.436;2022-08-01T09:22:17;102010.31;;;19.94;73.15
71970;BME280;59838;52.152;5.436;2022-08-01T09:27:28;102015.22;;;20.15;75.19
71970;BME280;59838;52.152;5.436;2022-08-01T09:30:14;102013.03;;;20.49;73.02
71970;BME280;59838;52.152;5.436;2022-08-01T09:33:02;102019.28;;;20.73;72.78
71970;BME280;59838;52.152;5.436;2022-08-01T09:35:43;102020.97;;;20.68;72.47
71970;BME280;59838;52.152;5.436;2022-08-01T09:38:18;102029.16;;;20.59;72.10
71970;BME280;59838;52.152;5.436;2022-08-01T09:40:54;102026.81;;;20.70;72.72
71970;BME280;59838;52.152;5.436;2022-08-01T09:43:30;102027.63;;;20.89;70.60
71970;BME280;59838;52.152;5.436;2022-08-01T09:45:59;102027.34;;;21.09;69.56
71970;BME280;59838;52.152;5.436;2022-08-01T09:48:26;102026.91;;;21.12;70.18
71970;BME280;59838;52.152;5.436;2022-08-01T09:50:56;102026.56;;;21.08;67.88
71970;BME280;59838;52.152;5.436;2022-08-01T09:53:47;102033.03;;;21.12;68.90
71970;BME280;59838;52.152;5.436;2022-08-01T09:56:20;102032.75;;;21.32;64.42
71970;BME280;59838;52.152;5.436;2022-08-01T10:01:27;102028.16;;;21.40;63.79
71970;BME280;59838;52.152;5.436;2022-08-01T10:04:05;102035.72;;;21.66;62.04
71970;BME280;59838;52.152;5.436;2022-08-01T10:06:36;102041.84;;;21.79;63.87
71970;BME280;59838;52.152;5.436;2022-08-01T10:09:03;102038.38;;;21.78;65.11
71970;BME280;59838;52.152;5.436;2022-08-01T10:11:31;102035.94;;;21.65;61.67
71970;BME280;59838;52.152;5.436;2022-08-01T10:14:02;102043.59;;;22.08;63.64
71970;BME280;59838;52.152;5.436;2022-08-01T10:16:30;102043.47;;;22.03;60.91
71970;BME280;59838;52.152;5.436;2022-08-01T10:18:59;102040.72;;;21.98;60.94
71970;BME280;59838;52.152;5.436;2022-08-01T10:21:29;102039.91;;;22.21;60.23
71970;BME280;59838;52.152;5.436;2022-08-01T10:24:19;102041.56;;;22.75;58.55
71970;BME280;59838;52.152;5.436;2022-08-01T10:27:07;102036.81;;;22.36;61.23
71970;BME280;59838;52.152;5.436;2022-08-01T10:30:14;102037.00;;;22.46;61.61
71970;BME280;59838;52.152;5.436;2022-08-01T10:32:49;102037.13;;;22.52;60.23
71970;BME280;59838;52.152;5.436;2022-08-01T10:35:20;102035.72;;;22.25;61.35
71970;BME280;59838;52.152;5.436;2022-08-01T10:38:07;102035.75;;;21.90;61.64
71970;BME280;59838;52.152;5.436;2022-08-01T10:40:45;102039.31;;;22.07;59.87
71970;BME280;59838;52.152;5.436;2022-08-01T10:43:15;102036.91;;;22.18;61.58
71970;BME280;59838;52.152;5.436;2022-08-01T10:45:50;102035.88;;;21.95;59.08
71970;BME280;59838;52.152;5.436;2022-08-01T10:51:02;102041.72;;;21.97;61.30
71970;BME280;59838;52.152;5.436;2022-08-01T10:53:52;102034.03;;;21.84;61.97
71970;BME280;59838;52.152;5.436;2022-08-01T10:56:21;102042.97;;;21.59;64.72
71970;BME280;59838;52.152;5.436;2022-08-01T10:59:01;102032.72;;;21.63;63.93
71970;BME280;59838;52.152;5.436;2022-08-01T11:01:36;102042.25;;;21.52;63.88
71970;BME280;59838;52.152;5.436;2022-08-01T11:12:05;102035.72;;;21.54;62.16
71970;BME280;59838;52.152;5.436;2022-08-01T11:17:37;102043.56;;;21.43;62.61
71970;BME280;59838;52.152;5.436;2022-08-01T11:20:09;102038.81;;;21.63;63.16
71970;BME280;59838;52.152;5.436;2022-08-01T11:25:23;102048.72;;;21.80;62.34
71970;BME280;59838;52.152;5.436;2022-08-01T11:30:41;102058.19;;;22.11;59.82
71970;BME280;59838;52.152;5.436;2022-08-01T11:33:08;102066.47;;;22.15;59.52
71970;BME280;59838;52.152;5.436;2022-08-01T11:38:49;102075.34;;;21.97;59.35
71970;BME280;59838;52.152;5.436;2022-08-01T11:41:40;102062.00;;;22.51;54.81
71970;BME280;59838;52.152;5.436;2022-08-01T11:46:52;102058.44;;;22.97;54.47
71970;BME280;59838;52.152;5.436;2022-08-01T11:52:23;102053.03;;;23.21;53.25
71970;BME280;59838;52.152;5.436;2022-08-01T11:54:52;102060.13;;;23.04;53.69
71970;BME280;59838;52.152;5.436;2022-08-01T11:57:24;102052.34;;;22.97;52.34
71970;BME280;59838;52.152;5.436;2022-08-01T12:00:01;102056.22;;;23.35;53.38
71970;BME280;59838;52.152;5.436;2022-08-01T12:02:34;102063.22;;;23.58;50.20
71970;BME280;59838;52.152;5.436;2022-08-01T12:05:09;102063.56;;;24.13;50.59
71970;BME280;59838;52.152;5.436;2022-08-01T12:07:40;102069.13;;;23.77;52.52
71970;BME280;59838;52.152;5.436;2022-08-01T12:10:16;102061.81;;;23.22;51.86
71970;BME280;59838;52.152;5.436;2022-08-01T12:15:12;102069.69;;;23.16;52.95
71970;BME280;59838;52.152;5.436;2022-08-01T12:17:41;102063.78;;;23.43;50.44
71970;BME280;59838;52.152;5.436;2022-08-01T12:20:24;102063.63;;;23.50;52.97
71970;BME280;59838;52.152;5.436;2022-08-01T12:22:56;102070.66;;;24.07;51.91
71970;BME280;59838;52.152;5.436;2022-08-01T12:25:23;102073.94;;;24.14;50.29
71970;BME280;59838;52.152;5.436;2022-08-01T12:27:50;102072.81;;;24.27;50.20
71970;BME280;59838;52.152;5.436;2022-08-01T12:30:23;102075.34;;;24.39;48.19
71970;BME280;59838;52.152;5.436;2022-08-01T12:32:51;102068.09;;;24.12;53.74
71970;BME280;59838;52.152;5.436;2022-08-01T12:35:26;102069.66;;;23.79;49.73
71970;BME280;59838;52.152;5.436;2022-08-01T12:37:59;102071.34;;;23.51;45.85
71970;BME280;59838;52.152;5.436;2022-08-01T12:40:31;102065.44;;;23.32;46.87
71970;BME280;59838;52.152;5.436;2022-08-01T12:43:00;102065.41;;;23.61;47.66
71970;BME280;59838;52.152;5.436;2022-08-01T12:45:36;102068.59;;;23.46;50.05
71970;BME280;59838;52.152;5.436;2022-08-01T12:48:08;102067.59;;;23.81;46.22
71970;BME280;59838;52.152;5.436;2022-08-01T12:50:37;102061.78;;;24.18;47.19
71970;BME280;59838;52.152;5.436;2022-08-01T12:53:05;102055.78;;;24.45;43.90
71970;BME280;59838;52.152;5.436;2022-08-01T12:55:32;102060.25;;;24.84;44.57
71970;BME280;59838;52.152;5.436;2022-08-01T12:58:05;102066.44;;;25.16;46.36
71970;BME280;59838;52.152;5.436;2022-08-01T13:00:41;102064.59;;;24.90;48.70
71970;BME280;59838;52.152;5.436;2022-08-01T13:05:55;102060.28;;;23.71;46.87
71970;BME280;59838;52.152;5.436;2022-08-01T13:08:29;102062.28;;;23.81;46.79
71970;BME280;59838;52.152;5.436;2022-08-01T13:13:39;102066.19;;;23.45;50.39
71970;BME280;59838;52.152;5.436;2022-08-01T13:16:07;102067.41;;;23.71;44.31
71970;BME280;59838;52.152;5.436;2022-08-01T13:18:52;102066.16;;;23.90;44.37
71970;BME280;59838;52.152;5.436;2022-08-01T13:21:21;102060.81;;;24.24;44.71
71970;BME280;59838;52.152;5.436;2022-08-01T13:26:58;102066.69;;;23.76;45.98
71970;BME280;59838;52.152;5.436;2022-08-01T13:29:37;102056.94;;;24.32;44.82
71970;BME280;59838;52.152;5.436;2022-08-01T13:32:15;102054.41;;;24.81;44.09
71970;BME280;59838;52.152;5.436;2022-08-01T13:35:21;102055.47;;;24.86;41.48
71970;BME280;59838;52.152;5.436;2022-08-01T13:37:48;102058.72;;;25.15;42.19
71970;BME280;59838;52.152;5.436;2022-08-01T13:40:24;102050.88;;;24.76;40.06
71970;BME280;59838;52.152;5.436;2022-08-01T13:42:57;102058.56;;;24.33;43.87
71970;BME280;59838;52.152;5.436;2022-08-01T13:45:24;102048.16;;;24.71;43.34
71970;BME280;59838;52.152;5.436;2022-08-01T13:47:51;102046.81;;;24.95;43.75
71970;BME280;59838;52.152;5.436;2022-08-01T13:50:39;102042.38;;;25.01;41.19
71970;BME280;59838;52.152;5.436;2022-08-01T13:53:08;102050.84;;;24.98;40.97
71970;BME280;59838;52.152;5.436;2022-08-01T13:55:35;102056.53;;;24.85;42.87
71970;BME280;59838;52.152;5.436;2022-08-01T13:58:02;102042.50;;;24.89;43.60